Hauptseite
METAR-TAF:

METAR-TAF

Flughäfen :

Militärflugplatz Woensdrecht

Woensdrecht, Niederlande

Breite: 51-27N, Länge: 004-20E, Höhe: 20 m

Beobachtung

Neuester Wetterbericht von vor 18 Minuten, um 03:55 UTC
Wind 3 kt aus Süd/Südwest, variierte zwischen Süd/Südwest und West/Nordwest
Temperatur 14°C
Luftfeuchtigkeit 82%
Luftdruck 1026 hPa
Sichtweite 10 km oder mehr
Geschlossene Wolkendecke in der Höhe von 21000 ft

METAR: EHWO 130355Z AUTO 21003KT 200V300 9999 OVC210 14/11 Q1026 BLU

Zeit: 06:13 (04:13 UTC)

Prognose

Neuester Wetterbericht von vor 19 Stunden und 39 Minuten, um 08:34 UTC
Gültige Prognose vom 12 um 09 UTC bis 12 um 21 UTC
Wind 12 kt aus Südwest, Böen bis zu 22 kt
Leicht bewölkt in der Höhe von 2000 ft
Übergehend zu
vom 12 um 17 UTC bis 12 um 19 UTC
Wind 7 kt aus Südwest

TAF: EHWO 120834Z 1209/1221 22012G22KT FEW020 BECMG 1217/1219 22007KT

Wetterbeobachtungen und Prognosen von mehr als 4000 Flughäfen (METAR und TAF Bericht).

Die verfügbaren Stationen werden durch gelbe und rote Markierungen auf der Karte dargestellt.

Führen Sie die Maus auf sie, um den Namen der Station zu sehen.

Darauf klicken, um die Beobachtung von Wetterbeobachtungen und Prognosen zu sehen.

Um die Karte zu ändern : klicken Sie auf den grünen Tasten mit einem schwarzen Kreuz Zum Vergrößern, auf den grünen Button mit einem Gedankenstrich zu verkleinern, oder auf die grünen Pfeile für benachbarte Karten.


METAR-TAF: